Portada
METAR-TAF:

METAR-TAF

Aeroports :

York Airport

York, Pennsilvània, Estats Units d'Amèrica

latitud: 39-55-10N, longitud: 076-52-37W, altitud: 146 m

Observació

L'informe es va fer fa 10 minuts, a les 18:10 UTC
Vent 3 kt del Oest
Temperatura 7°C
Humitat 93%
Pressió 992 hPa
Visibilitat: 4.8 km
Escasses núvols a una alçada de 400 ft
Cel ennuvolat a una alçada de 4200 ft
Cel cobert a una alçada de 6500 ft
pluja, boirina

METAR: KTHV 141810Z AUTO 27003KT 3SM -RA BR FEW004 BKN042 OVC065 07/06 A2929 RMK AO2 P0003 T00720061

Hora: 13:20 (18:20 UTC)


TAF: manca

Observacions i pronòstics meteorològics de més de 4000 aeroports (METAR i TAF).

Les estacions disponibles són els punts grocs i vermells al mapa.

Posi el ratolí al punt desitjat per veure el nom de l'estació.

Feu clic per veure les observacions i els pronòstics meteorològics.

Per canviar el mapa: feu clic els botons verds amb una creu de color negre per apropar; al botó verd amb un guió per allunyar la imatge; o en les fletxes verdes per a mapes adjacents.


METAR-TAF: